sensor_id;sensor_type;location;lat;lon;timestamp;P1;durP1;ratioP1;P2;durP2;ratioP2
10831;SDS011;5469;48.574;8.768;2022-07-22T00:01:42;2.20;;;2.00;;
10831;SDS011;5469;48.574;8.768;2022-07-22T00:04:15;2.83;;;2.17;;
10831;SDS011;5469;48.574;8.768;2022-07-22T00:06:49;1.70;;;1.58;;
10831;SDS011;5469;48.574;8.768;2022-07-22T00:09:22;2.10;;;1.98;;
10831;SDS011;5469;48.574;8.768;2022-07-22T00:11:56;3.50;;;1.83;;
10831;SDS011;5469;48.574;8.768;2022-07-22T00:14:29;2.05;;;1.85;;
10831;SDS011;5469;48.574;8.768;2022-07-22T00:17:04;2.60;;;2.05;;
10831;SDS011;5469;48.574;8.768;2022-07-22T00:19:37;2.30;;;2.10;;
10831;SDS011;5469;48.574;8.768;2022-07-22T00:22:11;2.85;;;2.20;;
10831;SDS011;5469;48.574;8.768;2022-07-22T00:24:44;2.67;;;2.00;;
10831;SDS011;5469;48.574;8.768;2022-07-22T00:27:17;2.50;;;1.90;;
10831;SDS011;5469;48.574;8.768;2022-07-22T00:29:51;2.40;;;1.90;;
10831;SDS011;5469;48.574;8.768;2022-07-22T00:32:25;1.80;;;1.70;;
10831;SDS011;5469;48.574;8.768;2022-07-22T00:34:59;1.77;;;1.65;;
10831;SDS011;5469;48.574;8.768;2022-07-22T00:37:32;2.42;;;2.22;;
10831;SDS011;5469;48.574;8.768;2022-07-22T00:40:06;2.67;;;1.83;;
10831;SDS011;5469;48.574;8.768;2022-07-22T00:42:40;2.25;;;1.90;;
10831;SDS011;5469;48.574;8.768;2022-07-22T00:45:13;2.22;;;2.00;;
10831;SDS011;5469;48.574;8.768;2022-07-22T00:47:48;3.30;;;2.28;;
10831;SDS011;5469;48.574;8.768;2022-07-22T00:50:21;2.95;;;2.00;;
10831;SDS011;5469;48.574;8.768;2022-07-22T00:52:55;2.25;;;2.05;;
10831;SDS011;5469;48.574;8.768;2022-07-22T00:55:29;3.72;;;2.40;;
10831;SDS011;5469;48.574;8.768;2022-07-22T00:58:03;1.98;;;1.88;;
10831;SDS011;5469;48.574;8.768;2022-07-22T01:00:36;2.75;;;2.30;;
10831;SDS011;5469;48.574;8.768;2022-07-22T01:03:11;2.25;;;2.05;;
10831;SDS011;5469;48.574;8.768;2022-07-22T01:05:45;2.35;;;1.98;;
10831;SDS011;5469;48.574;8.768;2022-07-22T01:08:18;1.92;;;1.83;;
10831;SDS011;5469;48.574;8.768;2022-07-22T01:10:52;2.13;;;1.92;;
10831;SDS011;5469;48.574;8.768;2022-07-22T01:13:25;2.40;;;2.20;;
10831;SDS011;5469;48.574;8.768;2022-07-22T01:15:59;2.78;;;2.22;;
10831;SDS011;5469;48.574;8.768;2022-07-22T01:18:34;1.80;;;1.70;;
10831;SDS011;5469;48.574;8.768;2022-07-22T01:21:09;2.30;;;2.10;;
10831;SDS011;5469;48.574;8.768;2022-07-22T01:23:43;2.17;;;1.98;;
10831;SDS011;5469;48.574;8.768;2022-07-22T01:26:17;1.75;;;1.65;;
10831;SDS011;5469;48.574;8.768;2022-07-22T01:28:50;1.92;;;1.77;;
10831;SDS011;5469;48.574;8.768;2022-07-22T01:31:24;1.80;;;1.70;;
10831;SDS011;5469;48.574;8.768;2022-07-22T01:33:57;2.05;;;1.92;;
10831;SDS011;5469;48.574;8.768;2022-07-22T01:36:32;2.53;;;2.33;;
10831;SDS011;5469;48.574;8.768;2022-07-22T01:39:05;2.35;;;2.15;;
10831;SDS011;5469;48.574;8.768;2022-07-22T01:41:38;3.90;;;2.10;;
10831;SDS011;5469;48.574;8.768;2022-07-22T01:44:12;2.10;;;1.98;;
10831;SDS011;5469;48.574;8.768;2022-07-22T01:46:45;2.92;;;1.85;;
10831;SDS011;5469;48.574;8.768;2022-07-22T01:49:19;2.42;;;2.22;;
10831;SDS011;5469;48.574;8.768;2022-07-22T01:51:54;2.35;;;1.80;;
10831;SDS011;5469;48.574;8.768;2022-07-22T01:54:27;2.25;;;2.08;;
10831;SDS011;5469;48.574;8.768;2022-07-22T01:57:01;2.60;;;2.40;;
10831;SDS011;5469;48.574;8.768;2022-07-22T01:59:34;4.43;;;2.20;;
10831;SDS011;5469;48.574;8.768;2022-07-22T02:02:07;4.47;;;2.50;;
10831;SDS011;5469;48.574;8.768;2022-07-22T02:04:41;2.38;;;2.17;;
10831;SDS011;5469;48.574;8.768;2022-07-22T02:07:15;2.65;;;2.45;;
10831;SDS011;5469;48.574;8.768;2022-07-22T02:09:49;2.92;;;2.63;;
10831;SDS011;5469;48.574;8.768;2022-07-22T02:12:22;2.88;;;2.50;;
10831;SDS011;5469;48.574;8.768;2022-07-22T02:14:56;3.10;;;2.22;;
10831;SDS011;5469;48.574;8.768;2022-07-22T02:17:29;2.35;;;2.15;;
10831;SDS011;5469;48.574;8.768;2022-07-22T02:20:03;2.80;;;2.40;;
10831;SDS011;5469;48.574;8.768;2022-07-22T02:22:38;2.70;;;2.50;;
10831;SDS011;5469;48.574;8.768;2022-07-22T02:25:12;2.53;;;2.20;;
10831;SDS011;5469;48.574;8.768;2022-07-22T02:27:45;3.05;;;2.60;;
10831;SDS011;5469;48.574;8.768;2022-07-22T02:30:19;3.10;;;2.33;;
10831;SDS011;5469;48.574;8.768;2022-07-22T02:32:52;2.08;;;1.90;;
10831;SDS011;5469;48.574;8.768;2022-07-22T02:35:25;2.47;;;2.22;;
10831;SDS011;5469;48.574;8.768;2022-07-22T02:38:00;3.40;;;2.50;;
10831;SDS011;5469;48.574;8.768;2022-07-22T02:40:33;3.03;;;2.53;;
10831;SDS011;5469;48.574;8.768;2022-07-22T02:43:07;3.83;;;2.70;;
10831;SDS011;5469;48.574;8.768;2022-07-22T02:45:40;3.67;;;2.83;;
10831;SDS011;5469;48.574;8.768;2022-07-22T02:48:13;2.72;;;2.47;;
10831;SDS011;5469;48.574;8.768;2022-07-22T02:50:47;3.40;;;2.47;;
10831;SDS011;5469;48.574;8.768;2022-07-22T02:53:22;3.08;;;2.42;;
10831;SDS011;5469;48.574;8.768;2022-07-22T02:55:55;3.00;;;2.70;;
10831;SDS011;5469;48.574;8.768;2022-07-22T02:58:29;2.47;;;2.28;;
10831;SDS011;5469;48.574;8.768;2022-07-22T03:01:02;2.25;;;2.05;;
10831;SDS011;5469;48.574;8.768;2022-07-22T03:03:35;2.80;;;2.22;;
10831;SDS011;5469;48.574;8.768;2022-07-22T03:06:09;2.13;;;2.00;;
10831;SDS011;5469;48.574;8.768;2022-07-22T03:08:43;2.40;;;2.20;;
10831;SDS011;5469;48.574;8.768;2022-07-22T03:11:17;1.98;;;1.77;;
10831;SDS011;5469;48.574;8.768;2022-07-22T03:13:50;2.30;;;2.10;;
10831;SDS011;5469;48.574;8.768;2022-07-22T03:16:24;2.40;;;2.20;;
10831;SDS011;5469;48.574;8.768;2022-07-22T03:18:57;2.47;;;2.28;;
10831;SDS011;5469;48.574;8.768;2022-07-22T03:21:30;2.50;;;2.30;;
10831;SDS011;5469;48.574;8.768;2022-07-22T03:24:05;3.00;;;2.53;;
10831;SDS011;5469;48.574;8.768;2022-07-22T03:26:39;2.58;;;2.35;;
10831;SDS011;5469;48.574;8.768;2022-07-22T03:29:12;2.53;;;2.28;;
10831;SDS011;5469;48.574;8.768;2022-07-22T03:31:45;6.25;;;2.28;;
10831;SDS011;5469;48.574;8.768;2022-07-22T03:34:19;3.45;;;2.70;;
10831;SDS011;5469;48.574;8.768;2022-07-22T03:36:52;2.63;;;2.42;;
10831;SDS011;5469;48.574;8.768;2022-07-22T03:39:27;2.30;;;2.13;;
10831;SDS011;5469;48.574;8.768;2022-07-22T03:42:00;2.40;;;2.20;;
10831;SDS011;5469;48.574;8.768;2022-07-22T03:44:34;2.55;;;2.35;;
10831;SDS011;5469;48.574;8.768;2022-07-22T03:47:07;2.75;;;2.25;;
10831;SDS011;5469;48.574;8.768;2022-07-22T03:49:40;2.65;;;2.25;;
10831;SDS011;5469;48.574;8.768;2022-07-22T03:52:14;2.30;;;2.13;;
10831;SDS011;5469;48.574;8.768;2022-07-22T03:54:48;3.10;;;2.20;;
10831;SDS011;5469;48.574;8.768;2022-07-22T03:57:22;3.30;;;2.50;;
10831;SDS011;5469;48.574;8.768;2022-07-22T03:59:55;2.65;;;2.45;;
10831;SDS011;5469;48.574;8.768;2022-07-22T04:02:29;3.83;;;2.50;;
10831;SDS011;5469;48.574;8.768;2022-07-22T04:05:03;2.65;;;2.40;;
10831;SDS011;5469;48.574;8.768;2022-07-22T04:07:37;3.58;;;2.10;;
10831;SDS011;5469;48.574;8.768;2022-07-22T04:10:11;3.05;;;2.55;;
10831;SDS011;5469;48.574;8.768;2022-07-22T04:12:45;2.60;;;2.40;;
10831;SDS011;5469;48.574;8.768;2022-07-22T04:15:18;2.83;;;2.40;;
10831;SDS011;5469;48.574;8.768;2022-07-22T04:17:52;2.78;;;2.42;;
10831;SDS011;5469;48.574;8.768;2022-07-22T04:20:25;2.35;;;2.15;;
10831;SDS011;5469;48.574;8.768;2022-07-22T04:22:59;4.07;;;2.70;;
10831;SDS011;5469;48.574;8.768;2022-07-22T04:25:33;2.47;;;2.28;;
10831;SDS011;5469;48.574;8.768;2022-07-22T04:28:07;2.80;;;2.47;;
10831;SDS011;5469;48.574;8.768;2022-07-22T04:30:40;2.60;;;2.40;;
10831;SDS011;5469;48.574;8.768;2022-07-22T04:33:14;2.63;;;2.42;;
10831;SDS011;5469;48.574;8.768;2022-07-22T04:35:47;2.22;;;2.03;;
10831;SDS011;5469;48.574;8.768;2022-07-22T04:38:20;3.15;;;2.35;;
10831;SDS011;5469;48.574;8.768;2022-07-22T04:40:55;2.72;;;2.53;;
10831;SDS011;5469;48.574;8.768;2022-07-22T04:43:29;3.13;;;2.83;;
10831;SDS011;5469;48.574;8.768;2022-07-22T04:46:02;2.83;;;2.50;;
10831;SDS011;5469;48.574;8.768;2022-07-22T04:48:37;3.35;;;2.53;;
10831;SDS011;5469;48.574;8.768;2022-07-22T04:51:10;3.55;;;2.83;;
10831;SDS011;5469;48.574;8.768;2022-07-22T04:53:43;3.95;;;2.83;;
10831;SDS011;5469;48.574;8.768;2022-07-22T04:56:18;3.58;;;2.50;;
10831;SDS011;5469;48.574;8.768;2022-07-22T04:58:52;2.50;;;2.30;;
10831;SDS011;5469;48.574;8.768;2022-07-22T05:01:25;3.00;;;2.65;;
10831;SDS011;5469;48.574;8.768;2022-07-22T05:03:58;4.30;;;3.35;;
10831;SDS011;5469;48.574;8.768;2022-07-22T05:06:32;3.10;;;2.80;;
10831;SDS011;5469;48.574;8.768;2022-07-22T05:09:05;2.63;;;2.42;;
10831;SDS011;5469;48.574;8.768;2022-07-22T05:11:40;3.20;;;2.85;;
10831;SDS011;5469;48.574;8.768;2022-07-22T05:14:14;3.55;;;2.83;;
10831;SDS011;5469;48.574;8.768;2022-07-22T05:16:47;3.10;;;2.80;;
10831;SDS011;5469;48.574;8.768;2022-07-22T05:19:20;5.40;;;3.08;;
10831;SDS011;5469;48.574;8.768;2022-07-22T05:21:54;3.45;;;2.92;;
10831;SDS011;5469;48.574;8.768;2022-07-22T05:24:27;3.95;;;2.83;;
10831;SDS011;5469;48.574;8.768;2022-07-22T05:27:02;2.72;;;2.45;;
10831;SDS011;5469;48.574;8.768;2022-07-22T05:29:36;5.53;;;2.90;;
10831;SDS011;5469;48.574;8.768;2022-07-22T05:32:09;2.65;;;2.30;;
10831;SDS011;5469;48.574;8.768;2022-07-22T05:34:43;4.10;;;2.67;;
10831;SDS011;5469;48.574;8.768;2022-07-22T05:37:16;3.70;;;3.13;;
10831;SDS011;5469;48.574;8.768;2022-07-22T05:39:49;3.13;;;2.83;;
10831;SDS011;5469;48.574;8.768;2022-07-22T05:42:24;5.75;;;2.85;;
10831;SDS011;5469;48.574;8.768;2022-07-22T05:44:57;2.97;;;2.55;;
10831;SDS011;5469;48.574;8.768;2022-07-22T05:47:31;3.03;;;2.72;;
10831;SDS011;5469;48.574;8.768;2022-07-22T05:50:04;3.88;;;2.90;;
10831;SDS011;5469;48.574;8.768;2022-07-22T05:52:38;3.92;;;2.53;;
10831;SDS011;5469;48.574;8.768;2022-07-22T05:55:11;4.88;;;2.75;;
10831;SDS011;5469;48.574;8.768;2022-07-22T05:57:46;3.55;;;3.10;;
10831;SDS011;5469;48.574;8.768;2022-07-22T06:00:20;4.88;;;2.58;;
10831;SDS011;5469;48.574;8.768;2022-07-22T06:02:53;3.13;;;2.63;;
10831;SDS011;5469;48.574;8.768;2022-07-22T06:05:26;3.17;;;2.88;;
10831;SDS011;5469;48.574;8.768;2022-07-22T06:08:00;3.15;;;2.70;;
10831;SDS011;5469;48.574;8.768;2022-07-22T06:10:33;3.03;;;2.72;;
10831;SDS011;5469;48.574;8.768;2022-07-22T06:13:08;4.70;;;2.67;;
10831;SDS011;5469;48.574;8.768;2022-07-22T06:15:41;3.47;;;2.55;;
10831;SDS011;5469;48.574;8.768;2022-07-22T06:18:15;3.50;;;2.53;;
10831;SDS011;5469;48.574;8.768;2022-07-22T06:20:48;3.95;;;3.08;;
10831;SDS011;5469;48.574;8.768;2022-07-22T06:23:22;3.20;;;2.90;;
10831;SDS011;5469;48.574;8.768;2022-07-22T06:25:56;6.60;;;3.30;;
10831;SDS011;5469;48.574;8.768;2022-07-22T06:28:31;4.28;;;3.10;;
10831;SDS011;5469;48.574;8.768;2022-07-22T06:31:04;5.07;;;2.83;;
10831;SDS011;5469;48.574;8.768;2022-07-22T06:33:37;4.55;;;2.92;;
10831;SDS011;5469;48.574;8.768;2022-07-22T06:36:11;5.05;;;3.45;;
10831;SDS011;5469;48.574;8.768;2022-07-22T06:38:46;2.97;;;2.70;;
10831;SDS011;5469;48.574;8.768;2022-07-22T06:41:19;6.30;;;3.08;;
10831;SDS011;5469;48.574;8.768;2022-07-22T06:43:54;3.28;;;2.40;;
10831;SDS011;5469;48.574;8.768;2022-07-22T06:46:27;2.65;;;2.42;;
10831;SDS011;5469;48.574;8.768;2022-07-22T06:49:00;3.45;;;2.70;;
10831;SDS011;5469;48.574;8.768;2022-07-22T06:51:34;3.60;;;2.97;;
10831;SDS011;5469;48.574;8.768;2022-07-22T06:54:07;3.95;;;3.00;;
10831;SDS011;5469;48.574;8.768;2022-07-22T06:56:40;5.10;;;2.97;;
10831;SDS011;5469;48.574;8.768;2022-07-22T06:59:15;2.40;;;2.22;;
10831;SDS011;5469;48.574;8.768;2022-07-22T07:01:49;3.15;;;2.72;;
10831;SDS011;5469;48.574;8.768;2022-07-22T07:04:22;3.67;;;3.00;;
10831;SDS011;5469;48.574;8.768;2022-07-22T07:06:56;3.35;;;2.78;;
10831;SDS011;5469;48.574;8.768;2022-07-22T07:09:29;2.90;;;2.60;;
10831;SDS011;5469;48.574;8.768;2022-07-22T07:12:02;3.20;;;2.58;;
10831;SDS011;5469;48.574;8.768;2022-07-22T07:14:37;5.53;;;2.75;;
10831;SDS011;5469;48.574;8.768;2022-07-22T07:17:11;2.85;;;2.65;;
10831;SDS011;5469;48.574;8.768;2022-07-22T07:19:44;3.25;;;2.55;;
10831;SDS011;5469;48.574;8.768;2022-07-22T07:22:17;4.38;;;2.63;;
10831;SDS011;5469;48.574;8.768;2022-07-22T07:24:51;3.13;;;2.63;;
10831;SDS011;5469;48.574;8.768;2022-07-22T07:27:24;3.15;;;2.85;;
10831;SDS011;5469;48.574;8.768;2022-07-22T07:29:59;3.05;;;2.50;;
10831;SDS011;5469;48.574;8.768;2022-07-22T07:32:33;3.78;;;2.80;;
10831;SDS011;5469;48.574;8.768;2022-07-22T07:35:06;3.75;;;3.15;;
10831;SDS011;5469;48.574;8.768;2022-07-22T07:37:40;3.33;;;2.80;;
10831;SDS011;5469;48.574;8.768;2022-07-22T07:40:14;3.00;;;2.70;;
10831;SDS011;5469;48.574;8.768;2022-07-22T07:42:47;4.45;;;3.22;;
10831;SDS011;5469;48.574;8.768;2022-07-22T07:45:22;5.28;;;3.05;;
10831;SDS011;5469;48.574;8.768;2022-07-22T07:47:55;3.33;;;3.03;;
10831;SDS011;5469;48.574;8.768;2022-07-22T07:50:29;4.68;;;3.00;;
10831;SDS011;5469;48.574;8.768;2022-07-22T07:53:03;3.88;;;3.30;;
10831;SDS011;5469;48.574;8.768;2022-07-22T07:55:36;2.78;;;2.58;;
10831;SDS011;5469;48.574;8.768;2022-07-22T07:58:11;3.40;;;3.08;;
10831;SDS011;5469;48.574;8.768;2022-07-22T08:00:46;4.28;;;3.08;;
10831;SDS011;5469;48.574;8.768;2022-07-22T08:03:19;4.10;;;3.15;;
10831;SDS011;5469;48.574;8.768;2022-07-22T08:05:53;3.70;;;2.85;;
10831;SDS011;5469;48.574;8.768;2022-07-22T08:08:26;2.92;;;2.72;;
10831;SDS011;5469;48.574;8.768;2022-07-22T08:11:00;2.63;;;2.42;;
10831;SDS011;5469;48.574;8.768;2022-07-22T08:13:33;4.10;;;2.95;;
10831;SDS011;5469;48.574;8.768;2022-07-22T08:16:08;3.33;;;2.97;;
10831;SDS011;5469;48.574;8.768;2022-07-22T08:18:41;3.65;;;3.35;;
10831;SDS011;5469;48.574;8.768;2022-07-22T08:21:15;3.67;;;2.67;;
10831;SDS011;5469;48.574;8.768;2022-07-22T08:23:48;4.22;;;3.25;;
10831;SDS011;5469;48.574;8.768;2022-07-22T08:26:22;4.88;;;2.35;;
10831;SDS011;5469;48.574;8.768;2022-07-22T08:28:55;2.95;;;2.67;;
10831;SDS011;5469;48.574;8.768;2022-07-22T08:31:30;3.67;;;2.58;;
10831;SDS011;5469;48.574;8.768;2022-07-22T08:34:06;3.38;;;3.08;;
10831;SDS011;5469;48.574;8.768;2022-07-22T08:36:40;4.90;;;2.85;;
10831;SDS011;5469;48.574;8.768;2022-07-22T08:39:13;3.08;;;2.78;;
10831;SDS011;5469;48.574;8.768;2022-07-22T08:41:47;3.88;;;2.90;;
10831;SDS011;5469;48.574;8.768;2022-07-22T08:44:20;3.33;;;2.78;;
10831;SDS011;5469;48.574;8.768;2022-07-22T08:46:55;3.17;;;2.88;;
10831;SDS011;5469;48.574;8.768;2022-07-22T08:49:29;2.97;;;2.72;;
10831;SDS011;5469;48.574;8.768;2022-07-22T08:52:02;3.20;;;2.40;;
10831;SDS011;5469;48.574;8.768;2022-07-22T08:54:36;4.45;;;3.10;;
10831;SDS011;5469;48.574;8.768;2022-07-22T08:57:09;3.70;;;2.80;;
10831;SDS011;5469;48.574;8.768;2022-07-22T08:59:49;2.92;;;2.63;;
10831;SDS011;5469;48.574;8.768;2022-07-22T09:02:25;3.30;;;2.83;;
10831;SDS011;5469;48.574;8.768;2022-07-22T09:05:02;2.70;;;2.47;;
10831;SDS011;5469;48.574;8.768;2022-07-22T09:07:38;3.20;;;2.58;;
10831;SDS011;5469;48.574;8.768;2022-07-22T09:10:13;2.65;;;2.45;;
10831;SDS011;5469;48.574;8.768;2022-07-22T09:12:51;4.45;;;2.40;;
10831;SDS011;5469;48.574;8.768;2022-07-22T09:15:27;2.95;;;2.45;;
10831;SDS011;5469;48.574;8.768;2022-07-22T09:18:04;3.30;;;2.58;;
10831;SDS011;5469;48.574;8.768;2022-07-22T09:20:38;4.90;;;2.92;;
10831;SDS011;5469;48.574;8.768;2022-07-22T09:23:12;2.60;;;2.40;;
10831;SDS011;5469;48.574;8.768;2022-07-22T09:25:46;2.85;;;2.40;;
10831;SDS011;5469;48.574;8.768;2022-07-22T09:28:21;2.10;;;1.90;;
10831;SDS011;5469;48.574;8.768;2022-07-22T09:30:56;2.63;;;2.45;;
10831;SDS011;5469;48.574;8.768;2022-07-22T09:33:31;2.63;;;2.42;;
10831;SDS011;5469;48.574;8.768;2022-07-22T09:36:05;3.20;;;2.45;;
10831;SDS011;5469;48.574;8.768;2022-07-22T09:38:39;3.42;;;2.60;;
10831;SDS011;5469;48.574;8.768;2022-07-22T09:41:12;3.30;;;2.80;;
10831;SDS011;5469;48.574;8.768;2022-07-22T09:43:46;3.75;;;2.78;;
10831;SDS011;5469;48.574;8.768;2022-07-22T09:46:32;2.58;;;2.28;;
10831;SDS011;5469;48.574;8.768;2022-07-22T09:49:09;3.03;;;2.40;;
10831;SDS011;5469;48.574;8.768;2022-07-22T09:52:03;3.30;;;2.28;;
10831;SDS011;5469;48.574;8.768;2022-07-22T09:54:36;2.95;;;2.50;;
10831;SDS011;5469;48.574;8.768;2022-07-22T09:57:10;2.83;;;2.53;;
10831;SDS011;5469;48.574;8.768;2022-07-22T09:59:44;2.90;;;2.38;;
10831;SDS011;5469;48.574;8.768;2022-07-22T10:02:17;2.88;;;2.55;;
10831;SDS011;5469;48.574;8.768;2022-07-22T10:04:53;3.10;;;2.35;;
10831;SDS011;5469;48.574;8.768;2022-07-22T10:07:28;2.78;;;2.60;;
10831;SDS011;5469;48.574;8.768;2022-07-22T10:10:02;2.70;;;2.00;;
10831;SDS011;5469;48.574;8.768;2022-07-22T10:12:36;2.92;;;2.72;;
10831;SDS011;5469;48.574;8.768;2022-07-22T10:15:10;3.33;;;2.78;;
10831;SDS011;5469;48.574;8.768;2022-07-22T10:17:45;3.15;;;2.90;;
10831;SDS011;5469;48.574;8.768;2022-07-22T10:20:22;2.60;;;2.38;;
10831;SDS011;5469;48.574;8.768;2022-07-22T10:22:57;3.10;;;2.80;;
10831;SDS011;5469;48.574;8.768;2022-07-22T10:25:32;2.83;;;2.50;;
10831;SDS011;5469;48.574;8.768;2022-07-22T10:28:21;4.45;;;2.90;;
10831;SDS011;5469;48.574;8.768;2022-07-22T10:31:16;2.55;;;2.20;;
10831;SDS011;5469;48.574;8.768;2022-07-22T10:33:51;3.08;;;2.45;;
10831;SDS011;5469;48.574;8.768;2022-07-22T10:36:30;2.67;;;2.47;;
10831;SDS011;5469;48.574;8.768;2022-07-22T10:39:06;2.30;;;2.10;;
10831;SDS011;5469;48.574;8.768;2022-07-22T10:41:41;3.15;;;2.60;;
10831;SDS011;5469;48.574;8.768;2022-07-22T10:44:16;2.80;;;2.50;;
10831;SDS011;5469;48.574;8.768;2022-07-22T10:50:44;3.28;;;2.28;;
10831;SDS011;5469;48.574;8.768;2022-07-22T10:53:39;3.47;;;2.80;;
10831;SDS011;5469;48.574;8.768;2022-07-22T10:56:15;2.95;;;2.58;;
10831;SDS011;5469;48.574;8.768;2022-07-22T10:58:57;2.30;;;2.20;;
10831;SDS011;5469;48.574;8.768;2022-07-22T11:01:40;2.58;;;2.35;;
10831;SDS011;5469;48.574;8.768;2022-07-22T11:04:15;3.42;;;2.35;;
10831;SDS011;5469;48.574;8.768;2022-07-22T11:06:51;2.50;;;2.30;;
10831;SDS011;5469;48.574;8.768;2022-07-22T11:09:32;3.05;;;1.88;;
10831;SDS011;5469;48.574;8.768;2022-07-22T11:12:08;3.05;;;2.20;;
10831;SDS011;5469;48.574;8.768;2022-07-22T11:14:45;2.42;;;2.03;;
10831;SDS011;5469;48.574;8.768;2022-07-22T11:17:19;2.30;;;2.15;;
10831;SDS011;5469;48.574;8.768;2022-07-22T11:19:55;2.15;;;1.95;;
10831;SDS011;5469;48.574;8.768;2022-07-22T11:22:28;2.30;;;2.10;;
10831;SDS011;5469;48.574;8.768;2022-07-22T11:25:04;2.95;;;2.10;;
10831;SDS011;5469;48.574;8.768;2022-07-22T11:27:39;2.10;;;1.90;;
10831;SDS011;5469;48.574;8.768;2022-07-22T11:30:23;2.30;;;1.75;;
10831;SDS011;5469;48.574;8.768;2022-07-22T11:32:56;2.70;;;2.38;;
10831;SDS011;5469;48.574;8.768;2022-07-22T11:35:30;2.35;;;2.15;;
10831;SDS011;5469;48.574;8.768;2022-07-22T11:38:03;3.38;;;2.40;;
10831;SDS011;5469;48.574;8.768;2022-07-22T11:40:41;2.85;;;2.10;;
10831;SDS011;5469;48.574;8.768;2022-07-22T11:43:15;2.65;;;2.05;;
10831;SDS011;5469;48.574;8.768;2022-07-22T11:45:57;2.58;;;2.28;;
10831;SDS011;5469;48.574;8.768;2022-07-22T11:48:31;2.35;;;2.05;;
10831;SDS011;5469;48.574;8.768;2022-07-22T11:51:04;3.13;;;2.20;;
10831;SDS011;5469;48.574;8.768;2022-07-22T11:53:39;2.50;;;2.13;;
10831;SDS011;5469;48.574;8.768;2022-07-22T11:56:15;2.25;;;1.90;;
10831;SDS011;5469;48.574;8.768;2022-07-22T11:58:52;1.88;;;1.65;;
10831;SDS011;5469;48.574;8.768;2022-07-22T12:01:27;1.80;;;1.70;;
10831;SDS011;5469;48.574;8.768;2022-07-22T12:04:02;1.70;;;1.60;;
10831;SDS011;5469;48.574;8.768;2022-07-22T12:06:38;2.00;;;1.88;;
10831;SDS011;5469;48.574;8.768;2022-07-22T12:09:15;1.88;;;1.75;;
10831;SDS011;5469;48.574;8.768;2022-07-22T12:11:55;2.28;;;2.08;;
10831;SDS011;5469;48.574;8.768;2022-07-22T12:14:30;1.85;;;1.75;;
10831;SDS011;5469;48.574;8.768;2022-07-22T12:17:05;2.38;;;2.20;;
10831;SDS011;5469;48.574;8.768;2022-07-22T12:19:41;3.53;;;1.70;;
10831;SDS011;5469;48.574;8.768;2022-07-22T12:22:19;2.00;;;1.80;;
10831;SDS011;5469;48.574;8.768;2022-07-22T12:24:57;2.10;;;2.00;;
10831;SDS011;5469;48.574;8.768;2022-07-22T12:27:35;1.50;;;1.40;;
10831;SDS011;5469;48.574;8.768;2022-07-22T12:30:12;2.45;;;2.10;;
10831;SDS011;5469;48.574;8.768;2022-07-22T12:32:46;2.33;;;1.73;;
10831;SDS011;5469;48.574;8.768;2022-07-22T12:35:20;2.17;;;2.00;;
10831;SDS011;5469;48.574;8.768;2022-07-22T12:37:54;1.80;;;1.70;;
10831;SDS011;5469;48.574;8.768;2022-07-22T12:40:27;1.80;;;1.70;;
10831;SDS011;5469;48.574;8.768;2022-07-22T12:43:03;2.78;;;1.73;;
10831;SDS011;5469;48.574;8.768;2022-07-22T12:45:38;3.17;;;2.55;;
10831;SDS011;5469;48.574;8.768;2022-07-22T12:48:13;2.47;;;2.22;;
10831;SDS011;5469;48.574;8.768;2022-07-22T12:50:54;2.13;;;1.95;;
10831;SDS011;5469;48.574;8.768;2022-07-22T12:53:29;2.58;;;2.15;;
10831;SDS011;5469;48.574;8.768;2022-07-22T12:56:05;2.13;;;1.92;;
10831;SDS011;5469;48.574;8.768;2022-07-22T12:58:43;1.83;;;1.73;;
10831;SDS011;5469;48.574;8.768;2022-07-22T13:01:18;3.00;;;2.20;;
10831;SDS011;5469;48.574;8.768;2022-07-22T13:03:51;2.10;;;1.90;;
10831;SDS011;5469;48.574;8.768;2022-07-22T13:06:27;2.50;;;2.33;;
10831;SDS011;5469;48.574;8.768;2022-07-22T13:09:01;2.38;;;1.90;;
10831;SDS011;5469;48.574;8.768;2022-07-22T13:11:35;2.72;;;1.77;;
10831;SDS011;5469;48.574;8.768;2022-07-22T13:14:13;2.10;;;1.90;;
10831;SDS011;5469;48.574;8.768;2022-07-22T13:16:47;2.17;;;1.98;;
10831;SDS011;5469;48.574;8.768;2022-07-22T13:19:21;3.92;;;2.00;;
10831;SDS011;5469;48.574;8.768;2022-07-22T13:21:54;2.33;;;2.10;;
10831;SDS011;5469;48.574;8.768;2022-07-22T13:24:28;3.08;;;2.20;;
10831;SDS011;5469;48.574;8.768;2022-07-22T13:27:01;2.33;;;2.13;;
10831;SDS011;5469;48.574;8.768;2022-07-22T13:29:36;2.25;;;2.00;;
10831;SDS011;5469;48.574;8.768;2022-07-22T13:32:10;1.88;;;1.75;;
10831;SDS011;5469;48.574;8.768;2022-07-22T13:34:44;2.40;;;2.20;;
10831;SDS011;5469;48.574;8.768;2022-07-22T13:37:17;2.05;;;1.95;;
10831;SDS011;5469;48.574;8.768;2022-07-22T13:39:51;2.38;;;2.17;;
10831;SDS011;5469;48.574;8.768;2022-07-22T13:42:27;2.55;;;1.90;;
10831;SDS011;5469;48.574;8.768;2022-07-22T13:45:02;2.25;;;1.88;;
10831;SDS011;5469;48.574;8.768;2022-07-22T13:47:38;2.40;;;2.20;;
10831;SDS011;5469;48.574;8.768;2022-07-22T13:50:12;2.22;;;1.80;;
10831;SDS011;5469;48.574;8.768;2022-07-22T13:52:46;1.67;;;1.58;;
10831;SDS011;5469;48.574;8.768;2022-07-22T13:55:19;2.28;;;2.08;;
10831;SDS011;5469;48.574;8.768;2022-07-22T13:57:53;1.98;;;1.88;;
10831;SDS011;5469;48.574;8.768;2022-07-22T14:00:30;2.22;;;2.03;;
10831;SDS011;5469;48.574;8.768;2022-07-22T14:03:04;2.17;;;2.05;;
10831;SDS011;5469;48.574;8.768;2022-07-22T14:05:38;1.88;;;1.77;;
10831;SDS011;5469;48.574;8.768;2022-07-22T14:08:11;2.33;;;2.00;;
10831;SDS011;5469;48.574;8.768;2022-07-22T14:10:45;2.65;;;2.10;;
10831;SDS011;5469;48.574;8.768;2022-07-22T14:13:18;2.85;;;1.95;;
10831;SDS011;5469;48.574;8.768;2022-07-22T14:15:53;1.92;;;1.83;;
10831;SDS011;5469;48.574;8.768;2022-07-22T14:18:27;2.50;;;2.30;;
10831;SDS011;5469;48.574;8.768;2022-07-22T14:21:00;3.08;;;2.17;;
10831;SDS011;5469;48.574;8.768;2022-07-22T14:23:33;2.30;;;1.95;;
10831;SDS011;5469;48.574;8.768;2022-07-22T14:26:07;3.97;;;2.15;;
10831;SDS011;5469;48.574;8.768;2022-07-22T14:28:40;2.33;;;1.80;;
10831;SDS011;5469;48.574;8.768;2022-07-22T14:31:15;2.88;;;2.30;;
10831;SDS011;5469;48.574;8.768;2022-07-22T14:33:49;2.05;;;1.88;;
10831;SDS011;5469;48.574;8.768;2022-07-22T14:36:23;2.35;;;2.15;;
10831;SDS011;5469;48.574;8.768;2022-07-22T14:38:56;2.35;;;2.15;;
10831;SDS011;5469;48.574;8.768;2022-07-22T14:41:30;2.35;;;2.15;;
10831;SDS011;5469;48.574;8.768;2022-07-22T14:44:04;2.30;;;2.10;;
10831;SDS011;5469;48.574;8.768;2022-07-22T14:46:39;3.40;;;2.28;;
10831;SDS011;5469;48.574;8.768;2022-07-22T14:49:12;2.40;;;2.17;;
10831;SDS011;5469;48.574;8.768;2022-07-22T14:51:47;2.05;;;1.92;;
10831;SDS011;5469;48.574;8.768;2022-07-22T14:54:20;1.98;;;1.88;;
10831;SDS011;5469;48.574;8.768;2022-07-22T14:56:54;4.43;;;2.20;;
10831;SDS011;5469;48.574;8.768;2022-07-22T14:59:27;3.30;;;2.20;;
10831;SDS011;5469;48.574;8.768;2022-07-22T15:02:02;1.63;;;1.52;;
10831;SDS011;5469;48.574;8.768;2022-07-22T15:04:36;2.20;;;2.03;;
10831;SDS011;5469;48.574;8.768;2022-07-22T15:07:09;2.08;;;1.92;;
10831;SDS011;5469;48.574;8.768;2022-07-22T15:09:43;2.28;;;2.08;;
10831;SDS011;5469;48.574;8.768;2022-07-22T15:12:16;1.92;;;1.83;;
10831;SDS011;5469;48.574;8.768;2022-07-22T15:14:50;2.22;;;2.03;;
10831;SDS011;5469;48.574;8.768;2022-07-22T15:17:25;1.83;;;1.73;;
10831;SDS011;5469;48.574;8.768;2022-07-22T15:19:58;3.35;;;2.45;;
10831;SDS011;5469;48.574;8.768;2022-07-22T15:22:31;2.83;;;1.83;;
10831;SDS011;5469;48.574;8.768;2022-07-22T15:25:05;2.28;;;2.08;;
10831;SDS011;5469;48.574;8.768;2022-07-22T15:27:39;1.88;;;1.77;;
10831;SDS011;5469;48.574;8.768;2022-07-22T15:30:12;2.58;;;2.38;;
10831;SDS011;5469;48.574;8.768;2022-07-22T15:32:47;1.80;;;1.70;;
10831;SDS011;5469;48.574;8.768;2022-07-22T15:35:21;2.85;;;2.30;;
10831;SDS011;5469;48.574;8.768;2022-07-22T15:37:54;1.88;;;1.77;;
10831;SDS011;5469;48.574;8.768;2022-07-22T15:40:28;3.15;;;2.85;;
10831;SDS011;5469;48.574;8.768;2022-07-22T15:43:01;2.42;;;2.22;;
10831;SDS011;5469;48.574;8.768;2022-07-22T15:45:34;2.15;;;2.00;;
10831;SDS011;5469;48.574;8.768;2022-07-22T15:48:09;2.38;;;2.17;;